Time;durP1;ratioP1;P1;durP2;ratioP2;P2;SDS_P1;SDS_P2;PMS_P1;PMS_P2;Temp;Humidity;BMP_temperature;BMP_pressure;BME280_temperature;BME280_humidity;BME280_pressure;Samples;Min_cycle;Max_cycle;Signal;HPM_P1;HPM_P2
2023/02/16 00:00:41;;;;;;;8.50;6.03;;;;;;;7.46;75.17;102197.97;6245424;28;20231;-71
2023/02/16 00:04:15;;;;;;;15.03;10.20;;;;;;;7.18;76.88;102196.78;6232892;28;20789;-70
2023/02/16 00:07:36;;;;;;;12.00;8.87;;;;;;;6.57;79.04;102195.56;6238699;28;20515;-70
2023/02/16 00:14:39;;;;;;;10.87;9.30;;;;;;;6.82;78.65;102196.03;6261601;28;20223;-71
2023/02/16 00:18:01;;;;;;;9.77;8.57;;;;;;;6.72;78.96;102193.91;6243232;28;20272;-70
2023/02/16 00:21:24;;;;;;;13.60;9.40;;;;;;;6.63;79.06;102195.28;6263212;28;20231;-70
2023/02/16 00:24:45;;;;;;;10.77;8.17;;;;;;;6.96;77.96;102195.31;6254526;28;20235;-70
2023/02/16 00:28:14;;;;;;;10.17;7.60;;;;;;;7.01;77.52;102202.16;6223165;28;20459;-69
2023/02/16 00:31:35;;;;;;;8.63;6.50;;;;;;;6.76;77.63;102193.66;6244493;28;20258;-69
2023/02/16 00:34:56;;;;;;;15.83;9.20;;;;;;;6.54;79.30;102186.81;6256349;28;20228;-69
2023/02/16 00:38:18;;;;;;;12.27;9.37;;;;;;;6.85;77.94;102185.16;6233742;28;20239;-70
2023/02/16 00:41:52;;;;;;;13.20;9.47;;;;;;;6.80;78.15;102179.16;6240964;28;20248;-70
2023/02/16 00:45:18;;;;;;;11.53;8.90;;;;;;;7.14;77.22;102178.25;6247024;28;20228;-70
2023/02/16 00:48:39;;;;;;;21.33;8.70;;;;;;;6.63;78.90;102173.84;6227301;28;20604;-70
2023/02/16 00:52:02;;;;;;;11.23;7.60;;;;;;;6.70;78.87;102175.22;6237938;28;20327;-69
2023/02/16 00:55:27;;;;;;;14.87;9.80;;;;;;;6.88;79.34;102181.47;6222007;28;20504;-70
2023/02/16 00:58:52;;;;;;;13.30;10.17;;;;;;;6.66;79.50;102175.47;6221969;28;20604;-70
2023/02/16 01:02:13;;;;;;;17.93;12.13;;;;;;;6.91;79.32;102175.91;6224207;28;20240;-70
2023/02/16 01:05:34;;;;;;;13.90;10.47;;;;;;;6.68;80.19;102171.78;6255967;28;20239;-69
2023/02/16 01:12:40;;;;;;;13.47;10.30;;;;;;;6.71;79.57;102174.31;6223987;28;20533;-70
2023/02/16 01:16:01;;;;;;;13.03;11.00;;;;;;;6.33;82.11;102170.91;6225580;28;20219;-71
2023/02/16 01:19:23;;;;;;;15.07;9.80;;;;;;;6.12;82.90;102163.94;6252728;28;20231;-70
2023/02/16 01:22:44;;;;;;;16.87;12.20;;;;;;;6.35;81.94;102155.63;6237702;28;20225;-71
2023/02/16 01:26:07;;;;;;;16.93;12.53;;;;;;;6.31;82.81;102159.41;6236174;28;22604;-71
2023/02/16 01:29:29;;;;;;;15.07;11.20;;;;;;;6.56;81.93;102155.47;6238355;28;20236;-70
2023/02/16 01:32:51;;;;;;;16.67;12.27;;;;;;;6.71;80.89;102147.50;6235144;28;20224;-70
2023/02/16 01:36:24;;;;;;;12.67;11.33;;;;;;;7.04;79.65;102142.16;6248691;28;20259;-71
2023/02/16 01:39:45;;;;;;;16.67;11.73;;;;;;;6.57;80.99;102141.97;6248588;28;20216;-70
2023/02/16 01:43:16;;;;;;;13.57;8.83;;;;;;;6.75;80.55;102148.19;6227635;28;20235;-70
2023/02/16 01:46:45;;;;;;;13.77;9.80;;;;;;;6.77;80.52;102141.81;6217585;28;20612;-70
2023/02/16 01:50:18;;;;;;;13.50;11.57;;;;;;;6.77;80.62;102140.94;6233740;28;20617;-70
2023/02/16 01:53:42;;;;;;;18.90;12.83;;;;;;;6.71;81.29;102133.25;6237705;28;20259;-71
2023/02/16 01:57:11;;;;;;;16.70;10.97;;;;;;;6.77;80.85;102135.59;6225502;28;20232;-70
2023/02/16 02:01:10;;;;;;;13.73;10.20;;;;;;;7.25;79.23;102139.19;6237544;28;20272;-70
2023/02/16 02:08:28;;;;;;;15.63;11.80;;;;;;;7.00;80.36;102141.47;6231080;28;20227;-69
2023/02/16 02:11:54;;;;;;;13.90;10.43;;;;;;;7.29;78.71;102145.25;6225494;28;20649;-71
2023/02/16 02:15:19;;;;;;;14.30;11.60;;;;;;;6.95;79.76;102135.47;6252494;28;20227;-72
2023/02/16 02:18:40;;;;;;;21.00;15.23;;;;;;;6.69;81.33;102135.13;6237508;28;20228;-69
2023/02/16 02:26:43;;;;;;;16.77;12.83;;;;;;;6.81;81.68;102131.78;6229902;28;20810;-71
2023/02/16 02:30:37;;;;;;;17.23;12.37;;;;;;;7.08;79.46;102139.22;6216925;28;20243;-71
2023/02/16 02:34:07;;;;;;;16.33;12.57;;;;;;;6.99;80.77;102138.84;6232614;28;20228;-71
2023/02/16 02:37:39;;;;;;;23.27;13.30;;;;;;;7.31;80.25;102140.66;6241506;28;20523;-71
2023/02/16 02:41:12;;;;;;;16.10;11.67;;;;;;;7.01;80.86;102137.81;6250172;28;20231;-71
2023/02/16 02:44:38;;;;;;;17.63;13.87;;;;;;;6.79;81.87;102134.56;6239887;28;20259;-71
2023/02/16 02:48:00;;;;;;;18.93;14.47;;;;;;;6.85;81.90;102128.88;6219997;28;20232;-71
2023/02/16 02:51:30;;;;;;;15.50;12.43;;;;;;;7.18;80.97;102131.53;6236684;28;20265;-70
2023/02/16 03:02:29;;;;;;;18.17;12.97;;;;;;;7.75;78.44;102114.00;6226763;28;20270;-70
2023/02/16 03:05:58;;;;;;;19.93;13.70;;;;;;;7.51;78.19;102105.53;6236842;28;20236;-70
2023/02/16 03:09:22;;;;;;;18.23;14.23;;;;;;;7.79;78.22;102104.84;6254970;28;20318;-71
2023/02/16 03:12:45;;;;;;;22.67;15.30;;;;;;;7.55;79.10;102092.81;6242113;28;20228;-70
2023/02/16 03:16:11;;;;;;;20.13;15.80;;;;;;;7.66;78.66;102087.69;6248304;28;20232;-70
2023/02/16 03:30:30;;;;;;;18.37;14.57;;;;;;;8.01;76.50;102094.56;6262792;28;20685;-70
2023/02/16 03:33:53;;;;;;;25.00;13.80;;;;;;;7.89;76.72;102097.97;6249879;28;20235;-70
2023/02/16 03:37:14;;;;;;;21.10;13.37;;;;;;;7.99;75.69;102101.84;6263526;28;20224;-71
2023/02/16 03:40:39;;;;;;;23.23;15.67;;;;;;;8.18;76.17;102096.28;6261278;28;20228;-70
2023/02/16 03:44:00;;;;;;;22.43;12.77;;;;;;;8.19;75.61;102098.88;6232426;28;20220;-70
2023/02/16 03:47:23;;;;;;;29.97;16.10;;;;;;;8.18;75.02;102097.13;6253552;28;20241;-70
2023/02/16 03:50:44;;;;;;;19.50;13.37;;;;;;;8.15;75.01;102075.84;6239721;28;20232;-71
2023/02/16 03:54:05;;;;;;;24.10;15.90;;;;;;;8.31;74.78;102076.69;6242926;28;20223;-70
2023/02/16 03:57:27;;;;;;;23.77;14.83;;;;;;;8.26;74.53;102077.91;6239177;28;20811;-69
2023/02/16 04:00:49;;;;;;;17.83;13.37;;;;;;;8.42;74.04;102081.41;6235401;28;20221;-70
2023/02/16 04:04:10;;;;;;;20.80;13.87;;;;;;;8.38;74.59;102074.50;6228672;28;20235;-71
2023/02/16 04:07:31;;;;;;;20.17;14.80;;;;;;;7.80;75.86;102069.00;6245357;28;20631;-70
2023/02/16 04:10:53;;;;;;;21.17;13.43;;;;;;;7.85;76.18;102064.22;6238465;28;20319;-69
2023/02/16 04:14:14;;;;;;;22.60;13.87;;;;;;;7.97;75.07;102063.47;6252022;28;20259;-70
2023/02/16 04:17:35;;;;;;;24.67;12.43;;;;;;;8.08;75.56;102053.84;6235330;28;20536;-71
2023/02/16 04:20:55;;;;;;;18.53;14.27;;;;;;;7.68;76.61;102073.25;6256502;28;20642;-72
2023/02/16 04:24:17;;;;;;;18.73;12.30;;;;;;;8.45;74.17;102063.25;6239365;28;20224;-69
2023/02/16 04:27:42;;;;;;;20.60;13.37;;;;;;;7.87;75.51;102062.31;6234989;28;20975;-70
2023/02/16 04:31:04;;;;;;;24.20;15.13;;;;;;;8.39;73.26;102069.00;6237466;28;20323;-71
2023/02/16 04:34:25;;;;;;;21.53;14.50;;;;;;;8.32;74.06;102074.88;6230311;28;20227;-70
2023/02/16 04:37:47;;;;;;;23.47;15.37;;;;;;;8.26;73.69;102072.56;6249607;28;20252;-71
2023/02/16 04:41:08;;;;;;;21.27;12.87;;;;;;;8.07;74.66;102065.53;6226263;28;20232;-71
2023/02/16 04:44:29;;;;;;;22.30;14.33;;;;;;;8.40;72.89;102062.69;6228179;28;20266;-70
2023/02/16 04:47:54;;;;;;;20.70;13.43;;;;;;;8.29;74.04;102058.91;6242057;28;20232;-72
2023/02/16 04:51:15;;;;;;;17.00;12.00;;;;;;;8.05;75.24;102061.22;6245482;28;20231;-70
2023/02/16 04:54:37;;;;;;;24.17;14.73;;;;;;;8.01;75.26;102059.66;6242605;28;20695;-70
2023/02/16 04:57:58;;;;;;;27.30;15.80;;;;;;;8.05;73.94;102070.13;6221441;28;20224;-70
2023/02/16 05:01:20;;;;;;;19.20;12.17;;;;;;;7.97;74.80;102064.34;6250842;28;20231;-70
2023/02/16 05:04:42;;;;;;;15.27;13.13;;;;;;;7.64;76.89;102063.63;6249014;28;20232;-71
2023/02/16 05:08:03;;;;;;;20.80;13.60;;;;;;;7.76;76.06;102054.88;6228169;28;20236;-70
2023/02/16 05:15:03;;;;;;;20.13;13.43;;;;;;;7.98;74.52;102060.72;6242945;28;20354;-70
2023/02/16 05:18:24;;;;;;;20.57;14.77;;;;;;;7.87;75.43;102060.47;6234156;28;20227;-71
2023/02/16 05:21:46;;;;;;;22.13;14.30;;;;;;;8.03;74.68;102061.31;6244351;28;20236;-70
2023/02/16 05:25:07;;;;;;;19.97;15.07;;;;;;;8.08;74.08;102047.59;6237590;28;20313;-70
2023/02/16 05:28:28;;;;;;;20.80;14.10;;;;;;;7.55;76.60;102058.78;6243806;28;20663;-70
2023/02/16 05:31:49;;;;;;;22.77;14.50;;;;;;;7.76;76.33;102060.25;6259595;28;20243;-71
2023/02/16 05:35:09;;;;;;;24.40;14.23;;;;;;;7.89;75.04;102068.44;6255795;28;20235;-70
2023/02/16 05:38:31;;;;;;;19.93;13.57;;;;;;;7.85;75.18;102067.75;6246839;28;20284;-70
2023/02/16 05:41:52;;;;;;;19.53;13.70;;;;;;;7.89;75.77;102065.75;6249333;28;20228;-71
2023/02/16 05:45:13;;;;;;;26.97;15.63;;;;;;;7.95;75.12;102071.63;6217501;28;20296;-70
2023/02/16 05:48:34;;;;;;;17.27;14.73;;;;;;;7.89;75.12;102079.19;6217741;28;20677;-71
2023/02/16 05:51:54;;;;;;;21.40;15.13;;;;;;;7.82;74.51;102067.94;6237815;28;20330;-71
2023/02/16 05:55:17;;;;;;;19.50;13.17;;;;;;;8.06;74.11;102065.63;6257363;28;20532;-71
2023/02/16 05:58:38;;;;;;;19.70;13.80;;;;;;;8.05;74.17;102070.13;6226035;28;20786;-71
2023/02/16 06:01:59;;;;;;;16.97;12.70;;;;;;;8.08;74.05;102064.59;6226998;28;20248;-71
2023/02/16 06:05:19;;;;;;;14.83;12.40;;;;;;;7.75;75.07;102058.53;6242694;28;20228;-71
2023/02/16 06:08:41;;;;;;;16.07;13.90;;;;;;;7.92;74.44;102055.72;6225093;28;20236;-70
2023/02/16 06:12:04;;;;;;;16.53;13.90;;;;;;;8.04;74.65;102062.19;6231601;28;20314;-70
2023/02/16 06:15:24;;;;;;;18.07;14.47;;;;;;;7.83;75.07;102052.69;6238018;28;20236;-70
2023/02/16 06:18:45;;;;;;;22.20;13.13;;;;;;;8.04;74.72;102052.31;6231386;28;20898;-70
2023/02/16 06:22:06;;;;;;;18.97;12.87;;;;;;;7.87;74.62;102065.84;6246016;28;20692;-71
2023/02/16 06:25:26;;;;;;;21.40;14.77;;;;;;;8.19;73.79;102063.97;6229614;28;20236;-69
2023/02/16 06:28:49;;;;;;;24.57;16.53;;;;;;;8.17;74.19;102055.13;6229193;28;20231;-70
2023/02/16 06:32:10;;;;;;;26.67;15.70;;;;;;;8.07;74.77;102057.47;6236600;28;20232;-71
2023/02/16 06:35:31;;;;;;;23.13;14.43;;;;;;;8.06;73.84;102060.25;6232130;28;20232;-70
2023/02/16 06:38:52;;;;;;;21.03;14.03;;;;;;;8.15;73.79;102053.47;6229876;28;20231;-70
2023/02/16 06:42:13;;;;;;;17.47;14.17;;;;;;;8.24;73.37;102067.22;6228575;28;20220;-70
2023/02/16 06:45:35;;;;;;;25.20;15.80;;;;;;;8.39;73.55;102074.38;6249993;28;20511;-71
2023/02/16 06:48:56;;;;;;;19.37;15.00;;;;;;;8.09;74.66;102082.41;6226697;28;20239;-70
2023/02/16 06:52:17;;;;;;;26.20;18.07;;;;;;;8.07;74.37;102080.81;6228940;28;20236;-68
2023/02/16 06:55:37;;;;;;;21.47;14.67;;;;;;;8.14;74.02;102071.41;6230426;28;20256;-70
2023/02/16 06:58:58;;;;;;;21.37;14.53;;;;;;;8.16;74.85;102055.19;6236900;28;20283;-71
2023/02/16 07:02:21;;;;;;;20.40;14.67;;;;;;;8.22;73.32;102068.28;6236488;28;20228;-70
2023/02/16 07:05:42;;;;;;;15.63;12.13;;;;;;;7.87;75.18;102067.66;6248332;28;20219;-69
2023/02/16 07:09:04;;;;;;;21.37;16.13;;;;;;;8.09;74.28;102052.88;6235236;28;20223;-70
2023/02/16 07:12:25;;;;;;;22.70;14.50;;;;;;;8.21;73.49;102051.28;6241577;28;20228;-70
2023/02/16 07:15:46;;;;;;;23.20;15.23;;;;;;;8.07;74.62;102052.09;6261257;28;20314;-70
2023/02/16 07:19:09;;;;;;;22.87;15.70;;;;;;;8.11;74.50;102060.00;6247690;28;20357;-73
2023/02/16 07:22:30;;;;;;;23.80;15.03;;;;;;;7.98;75.18;102046.44;6241531;28;20228;-71
2023/02/16 07:25:51;;;;;;;21.60;14.87;;;;;;;8.16;74.80;102055.19;6234355;28;20523;-70
2023/02/16 07:29:11;;;;;;;23.53;16.00;;;;;;;8.40;72.89;102045.72;6222968;28;20582;-66
2023/02/16 07:32:32;;;;;;;20.43;15.80;;;;;;;8.46;73.72;102059.63;6249648;28;20236;-69
2023/02/16 07:35:55;;;;;;;24.30;15.77;;;;;;;8.45;73.31;102067.78;6237062;28;20228;-68
2023/02/16 07:39:16;;;;;;;23.50;14.53;;;;;;;8.34;74.07;102064.88;6229757;28;20232;-67
2023/02/16 07:42:37;;;;;;;21.67;13.17;;;;;;;8.49;73.33;102063.97;6230913;28;20228;-69
2023/02/16 07:45:58;;;;;;;26.87;15.70;;;;;;;8.88;72.41;102063.31;6219379;28;20229;-70
2023/02/16 07:49:19;;;;;;;24.60;16.07;;;;;;;8.48;73.26;102059.53;6244537;28;20231;-69
2023/02/16 07:52:41;;;;;;;23.87;15.17;;;;;;;8.55;72.53;102055.53;6245773;28;20235;-68
2023/02/16 07:56:02;;;;;;;22.17;14.77;;;;;;;8.64;72.56;102046.88;6253964;28;20510;-67
2023/02/16 07:59:24;;;;;;;27.37;16.57;;;;;;;8.70;72.73;102055.41;6231217;28;20231;-69
2023/02/16 08:02:44;;;;;;;20.60;17.00;;;;;;;9.08;70.78;102061.09;6233817;28;20245;-68
2023/02/16 08:06:07;;;;;;;29.30;17.47;;;;;;;8.95;71.56;102065.50;6234017;28;20229;-69
2023/02/16 08:09:29;;;;;;;25.20;16.83;;;;;;;8.73;73.15;102068.69;6235143;28;20228;-69
2023/02/16 08:12:51;;;;;;;21.27;14.57;;;;;;;8.99;71.03;102061.66;6245518;28;20240;-68
2023/02/16 08:16:14;;;;;;;27.43;18.07;;;;;;;8.91;71.08;102065.81;6250499;28;20228;-69
2023/02/16 08:19:36;;;;;;;20.40;14.37;;;;;;;8.70;72.20;102060.81;6254218;28;20235;-69
2023/02/16 08:22:58;;;;;;;23.00;13.70;;;;;;;8.84;71.50;102054.56;6244833;28;20288;-69
2023/02/16 08:26:22;;;;;;;17.57;13.20;;;;;;;8.70;72.64;102060.81;6240996;28;20559;-69
2023/02/16 08:29:43;;;;;;;22.03;15.33;;;;;;;8.46;72.66;102056.06;6231661;28;20240;-69
2023/02/16 08:33:04;;;;;;;24.57;15.27;;;;;;;8.66;72.72;102042.25;6236614;28;20529;-70
2023/02/16 08:36:28;;;;;;;18.77;14.50;;;;;;;8.84;72.12;102057.28;6227895;28;20224;-70
2023/02/16 08:39:49;;;;;;;18.63;14.17;;;;;;;8.87;72.03;102062.44;6261804;28;20223;-70
2023/02/16 08:43:11;;;;;;;25.10;15.03;;;;;;;8.71;72.02;102061.66;6245203;28;20753;-69
2023/02/16 08:46:33;;;;;;;26.97;15.13;;;;;;;9.21;70.84;102056.66;6250741;28;21137;-69
2023/02/16 08:49:54;;;;;;;23.57;14.17;;;;;;;8.96;70.81;102053.81;6234010;28;20330;-68
2023/02/16 08:53:15;;;;;;;20.67;14.87;;;;;;;9.05;71.27;102052.34;6222134;28;20239;-69
2023/02/16 08:56:36;;;;;;;19.87;13.87;;;;;;;8.93;71.72;102042.38;6236311;28;20228;-70
2023/02/16 09:03:34;;;;;;;20.30;14.87;;;;;;;9.47;70.25;102031.59;6221851;28;20223;-68
2023/02/16 09:06:56;;;;;;;20.20;16.23;;;;;;;9.28;70.87;102039.13;6235790;28;20229;-69
2023/02/16 09:10:17;;;;;;;21.73;16.07;;;;;;;9.51;69.67;102033.13;6235753;28;20228;-70
2023/02/16 09:13:40;;;;;;;23.33;15.17;;;;;;;9.79;69.41;102066.28;6224605;28;20274;-70
2023/02/16 09:17:02;;;;;;;20.67;13.90;;;;;;;9.45;70.20;102062.28;6250502;28;20232;-69
2023/02/16 09:20:23;;;;;;;23.47;14.70;;;;;;;9.70;69.61;102046.22;6245083;28;20232;-69
2023/02/16 09:23:46;;;;;;;20.57;16.13;;;;;;;9.92;68.69;102042.97;6233570;28;20239;-70
2023/02/16 09:27:08;;;;;;;21.60;13.30;;;;;;;9.76;69.61;102050.34;6233611;28;20252;-69
2023/02/16 09:30:29;;;;;;;25.80;17.87;;;;;;;9.40;70.65;102067.09;6225513;28;20739;-70
2023/02/16 09:33:55;;;;;;;22.00;13.70;;;;;;;9.40;70.40;102065.28;6241040;28;20247;-69
2023/02/16 09:37:16;;;;;;;17.80;14.53;;;;;;;9.61;70.59;102071.06;6230536;28;20236;-70
2023/02/16 09:40:37;;;;;;;22.20;15.43;;;;;;;9.39;70.75;102076.13;6236920;28;20229;-71
2023/02/16 09:44:02;;;;;;;24.70;15.37;;;;;;;9.36;72.13;102085.28;6248548;28;20218;-72
2023/02/16 09:47:28;;;;;;;22.10;15.77;;;;;;;9.51;71.17;102089.63;6233525;28;20221;-70
2023/02/16 09:50:52;;;;;;;25.33;18.90;;;;;;;9.27;71.53;102091.25;6224252;28;20224;-68
2023/02/16 09:54:27;;;;;;;23.83;16.47;;;;;;;9.24;71.87;102088.72;6233477;28;20401;-69
2023/02/16 09:58:00;;;;;;;21.67;15.33;;;;;;;9.75;70.16;102081.81;6230081;28;21107;-68
2023/02/16 10:01:31;;;;;;;21.03;14.93;;;;;;;9.40;71.26;102089.50;6238934;28;20346;-69
2023/02/16 10:05:04;;;;;;;22.37;13.50;;;;;;;9.71;70.36;102084.78;6229051;28;20235;-68
2023/02/16 10:08:30;;;;;;;19.23;15.40;;;;;;;9.65;70.77;102089.63;6223541;28;21107;-69
2023/02/16 10:11:57;;;;;;;25.33;15.97;;;;;;;9.87;69.28;102088.19;6233087;28;20657;-68
2023/02/16 10:15:22;;;;;;;24.87;17.07;;;;;;;10.00;69.78;102089.97;6241637;28;20243;-70
2023/02/16 10:18:48;;;;;;;21.83;14.50;;;;;;;9.84;70.54;102100.06;6232174;28;20228;-69
2023/02/16 10:22:15;;;;;;;18.03;14.90;;;;;;;10.45;68.74;102089.56;6229567;28;20228;-68
2023/02/16 10:25:43;;;;;;;19.67;14.13;;;;;;;10.58;68.17;102086.03;6234962;28;20220;-68
2023/02/16 10:29:07;;;;;;;19.57;14.73;;;;;;;9.92;71.18;102094.16;6220210;28;20231;-70
2023/02/16 10:32:38;;;;;;;22.50;15.77;;;;;;;9.88;71.84;102096.19;6233220;28;20450;-69
2023/02/16 10:36:03;;;;;;;22.30;18.80;;;;;;;9.82;72.44;102082.25;6220041;28;20224;-69
2023/02/16 10:39:33;;;;;;;28.70;15.10;;;;;;;9.51;73.99;102097.72;6230443;28;20233;-70
2023/02/16 10:43:03;;;;;;;26.37;16.27;;;;;;;9.52;74.26;102099.47;6252332;28;20227;-71
2023/02/16 10:46:26;;;;;;;21.20;15.57;;;;;;;9.83;73.55;102083.97;6245715;28;20227;-68
2023/02/16 10:49:48;;;;;;;24.23;16.53;;;;;;;9.91;72.51;102087.03;6237928;28;20235;-68
2023/02/16 10:53:14;;;;;;;25.50;15.73;;;;;;;9.86;73.58;102086.47;6236780;28;20263;-69
2023/02/16 10:56:51;;;;;;;23.77;15.67;;;;;;;9.74;74.11;102098.06;6248972;28;20224;-68
2023/02/16 11:00:21;;;;;;;19.70;14.50;;;;;;;9.88;73.68;102095.31;6252979;28;20231;-73
2023/02/16 11:03:46;;;;;;;25.60;15.60;;;;;;;10.15;72.14;102096.19;6235309;28;20307;-70
2023/02/16 11:07:10;;;;;;;20.23;16.50;;;;;;;9.81;74.03;102100.25;6231935;28;20233;-69
2023/02/16 11:10:47;;;;;;;24.33;17.00;;;;;;;9.68;74.34;102093.09;6242824;28;20252;-69
2023/02/16 11:14:21;;;;;;;21.33;16.63;;;;;;;10.33;72.07;102084.16;6231178;28;20235;-70
2023/02/16 11:17:52;;;;;;;20.97;13.90;;;;;;;10.59;71.37;102091.34;6243889;28;20673;-67
2023/02/16 11:21:13;;;;;;;25.10;16.77;;;;;;;10.79;70.97;102077.31;6234871;28;20689;-68
2023/02/16 11:24:36;;;;;;;23.03;16.20;;;;;;;10.78;70.50;102081.00;6248464;28;20227;-69
2023/02/16 11:27:58;;;;;;;22.00;15.93;;;;;;;10.56;71.71;102074.47;6229117;28;20221;-69
2023/02/16 11:31:25;;;;;;;22.53;17.37;;;;;;;10.06;73.29;102073.41;6248908;28;20224;-70
2023/02/16 11:34:49;;;;;;;25.67;16.07;;;;;;;10.41;72.75;102069.19;6245582;28;20240;-69
2023/02/16 11:38:27;;;;;;;18.23;13.83;;;;;;;10.03;74.13;102080.84;6233010;28;20233;-68
2023/02/16 11:41:50;;;;;;;23.60;15.10;;;;;;;9.94;74.60;102073.34;6236595;28;20225;-69
2023/02/16 11:45:24;;;;;;;21.10;15.37;;;;;;;9.93;74.69;102069.78;6246478;28;20223;-70
2023/02/16 11:48:45;;;;;;;20.50;14.30;;;;;;;10.12;74.12;102074.84;6241774;28;20276;-69
2023/02/16 11:52:28;;;;;;;22.07;14.40;;;;;;;10.10;74.33;102074.03;6231877;28;20232;-69
2023/02/16 11:55:49;;;;;;;24.57;16.30;;;;;;;10.20;74.01;102070.66;6228920;28;20241;-69
2023/02/16 11:59:18;;;;;;;23.80;18.00;;;;;;;10.03;75.00;102070.94;6231496;28;20251;-69
2023/02/16 12:03:05;;;;;;;21.37;17.47;;;;;;;10.07;74.87;102066.19;6228091;28;20645;-69
2023/02/16 12:06:41;;;;;;;22.43;15.80;;;;;;;10.23;74.57;102066.91;6229117;28;20238;-69
2023/02/16 12:10:09;;;;;;;22.07;16.47;;;;;;;10.26;74.33;102072.94;6239060;28;20310;-70
2023/02/16 12:13:40;;;;;;;23.57;17.63;;;;;;;10.13;76.33;102055.91;6225247;28;20228;-70
2023/02/16 12:17:12;;;;;;;22.30;17.23;;;;;;;9.96;77.10;102052.56;6242414;28;20223;-69
2023/02/16 12:20:45;;;;;;;29.23;18.03;;;;;;;10.11;77.21;102056.97;6228373;28;20231;-69
2023/02/16 12:24:18;;;;;;;27.43;19.50;;;;;;;10.17;78.40;102056.53;6226404;28;20307;-69
2023/02/16 12:27:49;;;;;;;30.53;18.80;;;;;;;10.43;77.31;102050.19;6242063;28;20239;-69
2023/02/16 12:31:21;;;;;;;27.07;20.17;;;;;;;10.05;78.90;102038.47;6247039;28;20231;-69
2023/02/16 12:34:54;;;;;;;35.60;22.17;;;;;;;10.29;78.48;102042.22;6257613;28;20544;-70
2023/02/16 12:38:27;;;;;;;27.20;19.63;;;;;;;10.16;78.75;102050.28;6251846;28;20235;-68
2023/02/16 12:41:58;;;;;;;35.57;18.17;;;;;;;10.14;78.69;102051.34;6244093;28;20243;-68
2023/02/16 12:45:23;;;;;;;23.33;20.37;;;;;;;10.43;78.02;102036.72;6247974;28;20802;-69
2023/02/16 12:48:50;;;;;;;21.00;15.83;;;;;;;10.15;79.13;102053.97;6229536;28;20311;-70
2023/02/16 12:52:23;;;;;;;30.97;16.83;;;;;;;10.44;78.47;102042.03;6262957;28;20310;-68
2023/02/16 12:55:49;;;;;;;28.73;17.00;;;;;;;10.22;80.13;102025.59;6235917;28;20232;-70
2023/02/16 12:59:19;;;;;;;28.43;18.97;;;;;;;10.41;79.22;102026.06;6232117;28;20322;-70
2023/02/16 13:02:47;;;;;;;27.40;19.63;;;;;;;10.34;79.82;102019.38;6245206;28;20256;-69
2023/02/16 13:06:17;;;;;;;28.37;20.00;;;;;;;10.59;78.10;102015.81;6226667;28;20755;-69
2023/02/16 13:09:44;;;;;;;28.07;18.83;;;;;;;10.27;79.16;102015.38;6227024;28;20358;-69
2023/02/16 13:13:10;;;;;;;27.90;20.90;;;;;;;10.83;77.97;102000.59;6235705;28;20319;-71
2023/02/16 13:16:41;;;;;;;31.20;18.57;;;;;;;10.39;81.26;102010.94;6239980;28;20252;-69
2023/02/16 13:20:04;;;;;;;34.63;20.90;;;;;;;10.48;80.32;102004.06;6250656;28;20243;-70
2023/02/16 13:23:43;;;;;;;33.33;22.77;;;;;;;10.52;81.39;101995.66;6213266;28;20231;-69
2023/02/16 13:27:22;;;;;;;28.47;19.50;;;;;;;10.33;81.51;102000.59;6240100;28;20425;-69
2023/02/16 13:30:57;;;;;;;26.37;19.17;;;;;;;10.40;81.25;101992.00;6231942;28;20232;-72
2023/02/16 13:34:38;;;;;;;24.00;17.63;;;;;;;10.57;80.31;101988.13;6251880;28;20663;-70
2023/02/16 13:38:14;;;;;;;28.90;19.10;;;;;;;10.68;79.91;101977.41;6229841;28;20239;-70
2023/02/16 13:41:54;;;;;;;23.83;15.53;;;;;;;11.36;78.47;101972.38;6238144;28;20594;-73
2023/02/16 13:45:19;;;;;;;20.73;16.70;;;;;;;11.34;78.03;101970.75;6244102;28;20223;-68
2023/02/16 13:48:47;;;;;;;27.53;18.13;;;;;;;11.06;79.57;101971.94;6228027;28;20228;-69
2023/02/16 13:52:11;;;;;;;24.30;17.23;;;;;;;11.16;79.23;101970.28;6238745;28;20231;-69
2023/02/16 13:55:36;;;;;;;24.77;18.17;;;;;;;10.92;81.02;101978.34;6236837;28;20513;-71
2023/02/16 13:58:58;;;;;;;26.53;17.93;;;;;;;10.63;81.77;101984.09;6237113;28;20216;-70
2023/02/16 14:02:55;;;;;;;25.20;16.97;;;;;;;10.80;81.60;101978.38;6228397;28;20224;-69
2023/02/16 14:06:38;;;;;;;21.33;14.60;;;;;;;10.83;80.59;101978.13;6231714;28;20228;-70
2023/02/16 14:09:59;;;;;;;21.73;18.10;;;;;;;11.07;80.91;101966.44;6254873;28;20326;-70
2023/02/16 14:13:24;;;;;;;27.03;20.80;;;;;;;10.75;82.17;101981.41;6225371;28;20529;-70
2023/02/16 14:16:45;;;;;;;34.20;18.20;;;;;;;10.43;83.20;101972.91;6243236;28;20237;-69
2023/02/16 14:20:26;;;;;;;24.70;16.50;;;;;;;11.28;79.94;101956.72;6234113;28;20232;-69
2023/02/16 14:23:54;;;;;;;27.23;16.77;;;;;;;10.84;81.45;101961.84;6234315;28;20612;-69
2023/02/16 14:27:43;;;;;;;22.47;18.63;;;;;;;11.07;81.13;101954.78;6238632;28;20228;-67
2023/02/16 14:31:13;;;;;;;27.07;19.17;;;;;;;11.01;81.07;101957.94;6238324;28;20874;-69
2023/02/16 14:34:41;;;;;;;25.63;17.17;;;;;;;11.08;80.59;101953.78;6246503;28;20255;-69
2023/02/16 14:38:04;;;;;;;24.37;18.40;;;;;;;10.55;82.12;101959.53;6219223;28;20236;-69
2023/02/16 14:41:29;;;;;;;23.57;16.20;;;;;;;10.61;82.75;101946.47;6242705;28;20229;-69
2023/02/16 14:45:02;;;;;;;22.33;16.90;;;;;;;10.81;81.43;101943.19;6224450;28;20224;-69
2023/02/16 14:48:35;;;;;;;24.33;17.73;;;;;;;10.85;81.60;101941.13;6226007;28;20235;-73
2023/02/16 14:52:44;;;;;;;22.03;17.80;;;;;;;10.78;81.56;101940.72;6228387;28;20232;-71
2023/02/16 14:56:32;;;;;;;21.73;15.07;;;;;;;10.78;81.51;101946.13;6211179;28;20380;-69
2023/02/16 14:59:59;;;;;;;26.23;16.07;;;;;;;10.67;81.13;101935.25;6256901;28;20263;-69
2023/02/16 15:03:23;;;;;;;29.43;17.03;;;;;;;11.06;80.24;101923.34;6223412;28;20234;-69
2023/02/16 15:06:47;;;;;;;24.47;14.83;;;;;;;10.80;81.16;101932.53;6254457;28;20281;-68
2023/02/16 15:10:13;;;;;;;24.27;17.47;;;;;;;10.79;80.99;101936.19;6262209;28;20220;-70
2023/02/16 15:13:34;;;;;;;20.70;16.63;;;;;;;10.89;81.08;101946.19;6239029;28;20228;-72
2023/02/16 15:16:57;;;;;;;20.67;17.37;;;;;;;10.90;81.30;101934.44;6232068;28;20610;-70
2023/02/16 15:20:24;;;;;;;22.70;17.30;;;;;;;10.97;81.09;101935.69;6208313;28;20220;-70
2023/02/16 15:23:50;;;;;;;21.53;16.97;;;;;;;10.84;81.03;101934.88;6232274;28;20255;-69
2023/02/16 15:27:21;;;;;;;19.37;16.27;;;;;;;10.66;82.60;101944.28;6236458;28;20259;-68
2023/02/16 15:30:48;;;;;;;28.63;19.13;;;;;;;11.03;80.62;101953.28;6230195;28;20228;-69
2023/02/16 15:34:15;;;;;;;20.87;16.63;;;;;;;10.54;82.91;101961.34;6243049;28;20359;-68
2023/02/16 15:37:36;;;;;;;20.97;15.43;;;;;;;10.23;84.94;101968.06;6241973;28;20239;-69
2023/02/16 15:41:02;;;;;;;20.33;15.60;;;;;;;10.48;84.76;101948.31;6255981;28;20470;-68
2023/02/16 15:44:31;;;;;;;27.60;18.37;;;;;;;10.53;84.28;101953.38;6245476;28;20704;-69
2023/02/16 15:47:52;;;;;;;30.10;17.93;;;;;;;10.39;85.42;101966.00;6243707;28;20329;-70
2023/02/16 15:51:18;;;;;;;23.07;19.83;;;;;;;10.66;84.76;101955.06;6229336;28;20224;-70
2023/02/16 15:54:41;;;;;;;25.13;17.77;;;;;;;10.63;86.05;101949.91;6259459;28;20219;-69
2023/02/16 15:58:05;;;;;;;25.43;17.97;;;;;;;10.43;87.82;101950.47;6244522;28;20228;-70
2023/02/16 16:01:31;;;;;;;19.67;16.57;;;;;;;10.25;89.03;101951.78;6243027;28;20233;-68
2023/02/16 16:04:56;;;;;;;27.37;17.73;;;;;;;10.02;90.80;101960.56;6232957;28;20301;-70
2023/02/16 16:08:27;;;;;;;24.33;16.37;;;;;;;10.35;90.55;101960.94;6227338;28;20236;-68
2023/02/16 16:11:49;;;;;;;26.30;17.90;;;;;;;10.09;91.84;101956.47;6239642;28;20232;-70
2023/02/16 16:15:17;;;;;;;24.97;18.77;;;;;;;10.36;91.48;101949.19;6231584;28;20240;-70
2023/02/16 16:18:43;;;;;;;27.50;17.57;;;;;;;10.37;91.33;101946.38;6230265;28;20256;-69
2023/02/16 16:22:14;;;;;;;23.07;17.10;;;;;;;10.35;92.01;101944.75;6239249;28;20248;-68